sensor_id;sensor_type;location;lat;lon;timestamp;pressure;altitude;pressure_sealevel;temperature;humidity
4767;BME280;2397;53.576;9.746;2022-07-29T00:00:39;102051.22;;;11.58;90.03
4767;BME280;2397;53.576;9.746;2022-07-29T00:03:04;102053.38;;;11.73;89.65
4767;BME280;2397;53.576;9.746;2022-07-29T00:05:29;102053.78;;;11.86;88.88
4767;BME280;2397;53.576;9.746;2022-07-29T00:07:54;102051.06;;;12.11;86.84
4767;BME280;2397;53.576;9.746;2022-07-29T00:10:20;102051.94;;;12.12;86.58
4767;BME280;2397;53.576;9.746;2022-07-29T00:12:46;102059.66;;;11.80;87.70
4767;BME280;2397;53.576;9.746;2022-07-29T00:15:11;102048.66;;;11.60;88.78
4767;BME280;2397;53.576;9.746;2022-07-29T00:17:36;102045.56;;;12.33;87.05
4767;BME280;2397;53.576;9.746;2022-07-29T00:20:02;102038.34;;;12.53;85.37
4767;BME280;2397;53.576;9.746;2022-07-29T00:22:28;102039.00;;;12.13;84.92
4767;BME280;2397;53.576;9.746;2022-07-29T00:24:53;102036.59;;;12.21;85.08
4767;BME280;2397;53.576;9.746;2022-07-29T00:27:18;102039.16;;;11.89;85.98
4767;BME280;2397;53.576;9.746;2022-07-29T00:29:44;102031.53;;;12.24;86.30
4767;BME280;2397;53.576;9.746;2022-07-29T00:32:09;102032.41;;;12.25;84.62
4767;BME280;2397;53.576;9.746;2022-07-29T00:34:34;102028.94;;;12.24;84.97
4767;BME280;2397;53.576;9.746;2022-07-29T00:37:18;102024.41;;;12.17;84.55
4767;BME280;2397;53.576;9.746;2022-07-29T00:39:44;102017.59;;;12.54;84.04
4767;BME280;2397;53.576;9.746;2022-07-29T00:42:09;102015.75;;;12.50;83.46
4767;BME280;2397;53.576;9.746;2022-07-29T00:44:38;102010.16;;;12.03;84.53
4767;BME280;2397;53.576;9.746;2022-07-29T00:47:04;102016.84;;;11.37;87.85
4767;BME280;2397;53.576;9.746;2022-07-29T00:49:30;102019.00;;;11.50;88.95
4767;BME280;2397;53.576;9.746;2022-07-29T00:51:55;102012.78;;;11.74;88.25
4767;BME280;2397;53.576;9.746;2022-07-29T00:54:21;102024.00;;;11.73;88.37
4767;BME280;2397;53.576;9.746;2022-07-29T00:56:47;102014.53;;;11.75;87.20
4767;BME280;2397;53.576;9.746;2022-07-29T00:59:12;102017.59;;;11.62;87.56
4767;BME280;2397;53.576;9.746;2022-07-29T01:01:37;102010.84;;;11.67;88.54
4767;BME280;2397;53.576;9.746;2022-07-29T01:04:02;101999.22;;;11.84;87.87
4767;BME280;2397;53.576;9.746;2022-07-29T01:06:28;102010.56;;;12.18;85.62
4767;BME280;2397;53.576;9.746;2022-07-29T01:08:53;102009.16;;;11.69;87.28
4767;BME280;2397;53.576;9.746;2022-07-29T01:11:19;102003.91;;;11.96;87.07
4767;BME280;2397;53.576;9.746;2022-07-29T01:13:45;102005.25;;;12.13;85.85
4767;BME280;2397;53.576;9.746;2022-07-29T01:16:20;101998.06;;;12.03;86.40
4767;BME280;2397;53.576;9.746;2022-07-29T01:18:47;102002.81;;;12.20;85.70
4767;BME280;2397;53.576;9.746;2022-07-29T01:26:52;101987.97;;;11.84;86.45
4767;BME280;2397;53.576;9.746;2022-07-29T01:32:10;101984.72;;;11.91;86.69
4767;BME280;2397;53.576;9.746;2022-07-29T01:34:48;101986.25;;;11.54;88.69
4767;BME280;2397;53.576;9.746;2022-07-29T01:37:19;101979.53;;;11.32;89.65
4767;BME280;2397;53.576;9.746;2022-07-29T01:39:47;101974.41;;;11.33;90.00
4767;BME280;2397;53.576;9.746;2022-07-29T01:42:35;101974.16;;;11.54;89.85
4767;BME280;2397;53.576;9.746;2022-07-29T01:45:07;101973.72;;;11.39;90.50
4767;BME280;2397;53.576;9.746;2022-07-29T01:47:40;101958.59;;;11.85;89.78
4767;BME280;2397;53.576;9.746;2022-07-29T01:50:09;101965.81;;;11.65;89.03
4767;BME280;2397;53.576;9.746;2022-07-29T01:52:47;101963.44;;;11.42;91.27
4767;BME280;2397;53.576;9.746;2022-07-29T01:55:15;101961.84;;;11.47;90.48
4767;BME280;2397;53.576;9.746;2022-07-29T01:57:46;101955.84;;;11.19;92.16
4767;BME280;2397;53.576;9.746;2022-07-29T02:00:13;101960.13;;;11.78;90.71
4767;BME280;2397;53.576;9.746;2022-07-29T02:02:40;101955.97;;;11.83;89.74
4767;BME280;2397;53.576;9.746;2022-07-29T02:05:07;101958.72;;;11.29;91.40
4767;BME280;2397;53.576;9.746;2022-07-29T02:07:36;101955.59;;;11.71;90.50
4767;BME280;2397;53.576;9.746;2022-07-29T02:10:03;101958.19;;;11.71;89.97
4767;BME280;2397;53.576;9.746;2022-07-29T02:12:31;101958.28;;;11.43;90.63
4767;BME280;2397;53.576;9.746;2022-07-29T02:14:59;101956.63;;;11.76;90.77
4767;BME280;2397;53.576;9.746;2022-07-29T02:17:57;101954.41;;;11.58;90.99
4767;BME280;2397;53.576;9.746;2022-07-29T02:20:25;101948.88;;;11.47;91.79
4767;BME280;2397;53.576;9.746;2022-07-29T02:22:52;101941.63;;;11.35;92.12
4767;BME280;2397;53.576;9.746;2022-07-29T02:25:21;101941.63;;;11.66;91.40
4767;BME280;2397;53.576;9.746;2022-07-29T02:27:49;101945.16;;;11.37;91.85
4767;BME280;2397;53.576;9.746;2022-07-29T02:30:15;101945.44;;;11.18;93.12
4767;BME280;2397;53.576;9.746;2022-07-29T02:32:42;101939.09;;;11.67;92.35
4767;BME280;2397;53.576;9.746;2022-07-29T02:35:09;101936.78;;;11.46;92.02
4767;BME280;2397;53.576;9.746;2022-07-29T02:37:36;101937.50;;;11.42;92.61
4767;BME280;2397;53.576;9.746;2022-07-29T02:40:03;101939.69;;;11.58;93.02
4767;BME280;2397;53.576;9.746;2022-07-29T02:42:29;101933.59;;;11.56;92.83
4767;BME280;2397;53.576;9.746;2022-07-29T02:44:56;101928.63;;;11.64;91.96
4767;BME280;2397;53.576;9.746;2022-07-29T02:47:31;101932.53;;;11.50;92.31
4767;BME280;2397;53.576;9.746;2022-07-29T03:00:28;101930.34;;;11.64;91.26
4767;BME280;2397;53.576;9.746;2022-07-29T03:02:56;101926.69;;;11.87;90.65
4767;BME280;2397;53.576;9.746;2022-07-29T03:05:23;101924.28;;;11.93;90.16
4767;BME280;2397;53.576;9.746;2022-07-29T03:07:58;101926.16;;;11.69;91.07
4767;BME280;2397;53.576;9.746;2022-07-29T03:10:26;101920.56;;;11.85;91.13
4767;BME280;2397;53.576;9.746;2022-07-29T03:12:52;101924.03;;;11.86;90.73
4767;BME280;2397;53.576;9.746;2022-07-29T03:15:19;101917.75;;;11.77;91.63
4767;BME280;2397;53.576;9.746;2022-07-29T03:17:45;101918.84;;;11.54;91.42
4767;BME280;2397;53.576;9.746;2022-07-29T03:20:11;101912.50;;;11.74;92.03
4767;BME280;2397;53.576;9.746;2022-07-29T03:22:39;101920.56;;;11.85;91.37
4767;BME280;2397;53.576;9.746;2022-07-29T03:25:09;101912.69;;;11.82;91.01
4767;BME280;2397;53.576;9.746;2022-07-29T03:27:35;101926.25;;;11.72;91.46
4767;BME280;2397;53.576;9.746;2022-07-29T03:30:00;101912.03;;;11.89;91.41
4767;BME280;2397;53.576;9.746;2022-07-29T03:32:25;101907.06;;;11.97;90.71
4767;BME280;2397;53.576;9.746;2022-07-29T03:34:50;101909.84;;;12.05;90.17
4767;BME280;2397;53.576;9.746;2022-07-29T03:37:16;101904.25;;;11.89;90.81
4767;BME280;2397;53.576;9.746;2022-07-29T03:39:42;101912.25;;;11.97;91.03
4767;BME280;2397;53.576;9.746;2022-07-29T03:42:12;101901.16;;;12.03;91.68
4767;BME280;2397;53.576;9.746;2022-07-29T03:44:40;101896.06;;;12.06;90.58
4767;BME280;2397;53.576;9.746;2022-07-29T03:47:08;101903.47;;;11.62;92.12
4767;BME280;2397;53.576;9.746;2022-07-29T03:49:36;101903.09;;;11.80;92.46
4767;BME280;2397;53.576;9.746;2022-07-29T03:52:01;101904.78;;;11.47;93.55
4767;BME280;2397;53.576;9.746;2022-07-29T03:54:27;101905.00;;;11.53;93.88
4767;BME280;2397;53.576;9.746;2022-07-29T03:56:52;101898.72;;;11.77;94.12
4767;BME280;2397;53.576;9.746;2022-07-29T03:59:19;101912.09;;;11.60;93.71
4767;BME280;2397;53.576;9.746;2022-07-29T04:01:46;101913.94;;;11.65;94.22
4767;BME280;2397;53.576;9.746;2022-07-29T04:04:13;101919.78;;;11.57;93.92
4767;BME280;2397;53.576;9.746;2022-07-29T04:06:39;101909.09;;;11.77;93.55
4767;BME280;2397;53.576;9.746;2022-07-29T04:09:05;101903.13;;;11.81;93.82
4767;BME280;2397;53.576;9.746;2022-07-29T04:11:30;101901.69;;;11.91;93.38
4767;BME280;2397;53.576;9.746;2022-07-29T04:13:56;101908.28;;;12.10;93.76
4767;BME280;2397;53.576;9.746;2022-07-29T04:16:21;101903.13;;;11.81;93.56
4767;BME280;2397;53.576;9.746;2022-07-29T04:18:46;101904.41;;;11.64;94.33
4767;BME280;2397;53.576;9.746;2022-07-29T04:21:11;101906.63;;;11.82;95.15
4767;BME280;2397;53.576;9.746;2022-07-29T04:23:37;101900.38;;;11.75;94.44
4767;BME280;2397;53.576;9.746;2022-07-29T04:26:02;101909.22;;;11.82;94.70
4767;BME280;2397;53.576;9.746;2022-07-29T04:28:28;101907.84;;;11.94;95.22
4767;BME280;2397;53.576;9.746;2022-07-29T04:30:53;101905.50;;;11.72;95.56
4767;BME280;2397;53.576;9.746;2022-07-29T04:33:18;101903.63;;;11.98;95.08
4767;BME280;2397;53.576;9.746;2022-07-29T04:35:43;101907.47;;;12.12;94.39
4767;BME280;2397;53.576;9.746;2022-07-29T04:38:09;101903.13;;;12.11;94.25
4767;BME280;2397;53.576;9.746;2022-07-29T04:40:34;101899.13;;;11.92;94.36
4767;BME280;2397;53.576;9.746;2022-07-29T04:43:00;101901.66;;;11.89;94.95
4767;BME280;2397;53.576;9.746;2022-07-29T04:45:25;101905.16;;;11.91;95.51
4767;BME280;2397;53.576;9.746;2022-07-29T04:47:51;101907.66;;;11.88;96.71
4767;BME280;2397;53.576;9.746;2022-07-29T04:50:16;101899.84;;;11.87;96.75
4767;BME280;2397;53.576;9.746;2022-07-29T04:52:42;101908.03;;;12.01;96.98
4767;BME280;2397;53.576;9.746;2022-07-29T04:55:07;101907.34;;;12.08;96.76
4767;BME280;2397;53.576;9.746;2022-07-29T04:57:33;101900.59;;;12.15;97.50
4767;BME280;2397;53.576;9.746;2022-07-29T04:59:58;101907.44;;;12.11;98.06
4767;BME280;2397;53.576;9.746;2022-07-29T05:02:23;101905.38;;;12.33;97.61
4767;BME280;2397;53.576;9.746;2022-07-29T05:04:48;101913.69;;;12.92;94.94
4767;BME280;2397;53.576;9.746;2022-07-29T05:07:14;101908.50;;;12.54;96.75
4767;BME280;2397;53.576;9.746;2022-07-29T05:09:39;101908.22;;;12.80;96.46
4767;BME280;2397;53.576;9.746;2022-07-29T05:12:05;101908.56;;;12.57;97.05
4767;BME280;2397;53.576;9.746;2022-07-29T05:14:30;101914.28;;;12.80;96.79
4767;BME280;2397;53.576;9.746;2022-07-29T05:16:55;101914.81;;;12.65;95.79
4767;BME280;2397;53.576;9.746;2022-07-29T05:19:22;101917.41;;;12.65;96.02
4767;BME280;2397;53.576;9.746;2022-07-29T05:21:48;101913.22;;;12.71;96.99
4767;BME280;2397;53.576;9.746;2022-07-29T05:24:13;101911.31;;;13.02;96.20
4767;BME280;2397;53.576;9.746;2022-07-29T05:26:39;101911.75;;;13.22;95.88
4767;BME280;2397;53.576;9.746;2022-07-29T05:29:04;101914.47;;;13.28;94.35
4767;BME280;2397;53.576;9.746;2022-07-29T05:31:29;101905.53;;;13.13;96.13
4767;BME280;2397;53.576;9.746;2022-07-29T05:33:55;101915.84;;;13.51;94.40
4767;BME280;2397;53.576;9.746;2022-07-29T05:36:20;101917.78;;;13.62;91.63
4767;BME280;2397;53.576;9.746;2022-07-29T05:38:45;101913.72;;;13.75;91.57
4767;BME280;2397;53.576;9.746;2022-07-29T05:41:10;101918.69;;;13.62;91.12
4767;BME280;2397;53.576;9.746;2022-07-29T05:43:35;101917.84;;;13.65;91.67
4767;BME280;2397;53.576;9.746;2022-07-29T05:46:02;101920.53;;;13.68;90.23
4767;BME280;2397;53.576;9.746;2022-07-29T05:48:27;101922.97;;;14.06;91.95
4767;BME280;2397;53.576;9.746;2022-07-29T05:50:53;101918.69;;;14.08;88.60
4767;BME280;2397;53.576;9.746;2022-07-29T05:53:18;101913.19;;;13.93;91.15
4767;BME280;2397;53.576;9.746;2022-07-29T05:55:43;101917.41;;;13.86;91.11
4767;BME280;2397;53.576;9.746;2022-07-29T05:58:09;101915.38;;;13.69;90.96
4767;BME280;2397;53.576;9.746;2022-07-29T06:00:34;101919.81;;;13.77;91.40
4767;BME280;2397;53.576;9.746;2022-07-29T06:03:00;101925.94;;;13.79;91.30
4767;BME280;2397;53.576;9.746;2022-07-29T06:05:25;101920.00;;;13.86;91.98
4767;BME280;2397;53.576;9.746;2022-07-29T06:07:50;101924.34;;;13.87;90.48
4767;BME280;2397;53.576;9.746;2022-07-29T06:10:15;101919.69;;;14.18;88.54
4767;BME280;2397;53.576;9.746;2022-07-29T06:12:41;101926.78;;;14.25;88.02
4767;BME280;2397;53.576;9.746;2022-07-29T06:15:06;101927.06;;;14.40;89.23
4767;BME280;2397;53.576;9.746;2022-07-29T06:17:32;101925.78;;;14.67;88.01
4767;BME280;2397;53.576;9.746;2022-07-29T06:19:57;101919.34;;;15.03;85.96
4767;BME280;2397;53.576;9.746;2022-07-29T06:22:22;101920.91;;;14.93;84.43
4767;BME280;2397;53.576;9.746;2022-07-29T06:24:48;101921.88;;;14.99;85.85
4767;BME280;2397;53.576;9.746;2022-07-29T06:27:14;101912.63;;;15.21;82.69
4767;BME280;2397;53.576;9.746;2022-07-29T06:29:39;101914.28;;;15.16;83.33
4767;BME280;2397;53.576;9.746;2022-07-29T06:32:04;101917.91;;;15.27;84.66
4767;BME280;2397;53.576;9.746;2022-07-29T06:34:30;101911.94;;;15.37;83.32
4767;BME280;2397;53.576;9.746;2022-07-29T06:36:55;101910.16;;;15.35;82.33
4767;BME280;2397;53.576;9.746;2022-07-29T06:39:20;101913.41;;;15.86;81.61
4767;BME280;2397;53.576;9.746;2022-07-29T06:41:47;101907.25;;;15.80;78.67
4767;BME280;2397;53.576;9.746;2022-07-29T06:44:14;101906.19;;;15.66;79.27
4767;BME280;2397;53.576;9.746;2022-07-29T06:46:39;101912.63;;;15.94;80.77
4767;BME280;2397;53.576;9.746;2022-07-29T06:49:04;101906.69;;;16.09;79.30
4767;BME280;2397;53.576;9.746;2022-07-29T06:51:29;101910.78;;;15.84;80.48
4767;BME280;2397;53.576;9.746;2022-07-29T06:53:55;101902.75;;;15.70;81.96
4767;BME280;2397;53.576;9.746;2022-07-29T06:56:22;101908.00;;;15.73;81.62
4767;BME280;2397;53.576;9.746;2022-07-29T06:58:47;101909.09;;;15.89;82.66
4767;BME280;2397;53.576;9.746;2022-07-29T07:01:13;101901.31;;;15.97;80.53
4767;BME280;2397;53.576;9.746;2022-07-29T07:03:38;101908.34;;;16.04;80.82
4767;BME280;2397;53.576;9.746;2022-07-29T07:06:03;101907.66;;;16.25;78.77
4767;BME280;2397;53.576;9.746;2022-07-29T07:08:28;101906.81;;;16.25;78.43
4767;BME280;2397;53.576;9.746;2022-07-29T07:10:54;101898.19;;;16.38;78.60
4767;BME280;2397;53.576;9.746;2022-07-29T07:13:20;101901.00;;;16.63;77.77
4767;BME280;2397;53.576;9.746;2022-07-29T07:15:45;101904.53;;;16.74;76.62
4767;BME280;2397;53.576;9.746;2022-07-29T07:18:13;101895.75;;;16.60;77.95
4767;BME280;2397;53.576;9.746;2022-07-29T07:20:38;101886.59;;;17.42;75.28
4767;BME280;2397;53.576;9.746;2022-07-29T07:23:04;101884.06;;;17.68;72.27
4767;BME280;2397;53.576;9.746;2022-07-29T07:25:30;101882.31;;;17.70;73.24
4767;BME280;2397;53.576;9.746;2022-07-29T07:27:55;101886.59;;;17.36;72.16
4767;BME280;2397;53.576;9.746;2022-07-29T07:30:20;101889.28;;;17.65;74.94
4767;BME280;2397;53.576;9.746;2022-07-29T07:32:46;101890.22;;;17.89;72.10
4767;BME280;2397;53.576;9.746;2022-07-29T07:35:11;101889.34;;;17.88;71.77
4767;BME280;2397;53.576;9.746;2022-07-29T07:37:38;101885.91;;;18.00;73.26
4767;BME280;2397;53.576;9.746;2022-07-29T07:40:06;101887.66;;;18.24;70.34
4767;BME280;2397;53.576;9.746;2022-07-29T07:42:31;101886.78;;;18.29;69.55
4767;BME280;2397;53.576;9.746;2022-07-29T07:44:57;101889.38;;;18.04;70.23
4767;BME280;2397;53.576;9.746;2022-07-29T07:47:22;101894.63;;;18.19;71.15
4767;BME280;2397;53.576;9.746;2022-07-29T07:49:49;101889.38;;;17.99;68.49
4767;BME280;2397;53.576;9.746;2022-07-29T07:52:16;101884.16;;;17.92;70.27
4767;BME280;2397;53.576;9.746;2022-07-29T07:54:42;101891.13;;;18.22;71.31
4767;BME280;2397;53.576;9.746;2022-07-29T07:57:11;101885.03;;;18.12;66.58
4767;BME280;2397;53.576;9.746;2022-07-29T07:59:37;101881.53;;;18.08;67.56
4767;BME280;2397;53.576;9.746;2022-07-29T08:02:03;101880.66;;;18.19;68.79
4767;BME280;2397;53.576;9.746;2022-07-29T08:04:28;101877.97;;;18.79;68.02
4767;BME280;2397;53.576;9.746;2022-07-29T08:06:53;101868.34;;;18.81;66.79
4767;BME280;2397;53.576;9.746;2022-07-29T08:09:20;101861.31;;;18.99;65.20
4767;BME280;2397;53.576;9.746;2022-07-29T08:11:45;101866.44;;;19.33;66.13
4767;BME280;2397;53.576;9.746;2022-07-29T08:14:11;101868.00;;;19.63;62.47
4767;BME280;2397;53.576;9.746;2022-07-29T08:16:36;101871.47;;;19.70;62.40
4767;BME280;2397;53.576;9.746;2022-07-29T08:19:01;101869.69;;;19.76;61.62
4767;BME280;2397;53.576;9.746;2022-07-29T08:21:26;101873.06;;;19.94;63.19
4767;BME280;2397;53.576;9.746;2022-07-29T08:23:52;101869.56;;;19.95;61.18
4767;BME280;2397;53.576;9.746;2022-07-29T08:26:19;101870.22;;;20.23;60.29
4767;BME280;2397;53.576;9.746;2022-07-29T08:28:46;101873.13;;;19.89;60.36
4767;BME280;2397;53.576;9.746;2022-07-29T08:31:13;101873.84;;;20.07;60.24
4767;BME280;2397;53.576;9.746;2022-07-29T08:33:39;101879.75;;;20.33;59.46
4767;BME280;2397;53.576;9.746;2022-07-29T08:36:05;101873.66;;;20.31;60.60
4767;BME280;2397;53.576;9.746;2022-07-29T08:38:31;101875.09;;;20.63;59.76
4767;BME280;2397;53.576;9.746;2022-07-29T08:40:56;101867.34;;;20.51;58.22
4767;BME280;2397;53.576;9.746;2022-07-29T08:43:22;101873.00;;;20.99;56.42
4767;BME280;2397;53.576;9.746;2022-07-29T08:45:49;101870.34;;;20.99;56.07
4767;BME280;2397;53.576;9.746;2022-07-29T08:48:18;101876.66;;;20.83;56.74
4767;BME280;2397;53.576;9.746;2022-07-29T08:50:44;101871.22;;;20.98;57.69
4767;BME280;2397;53.576;9.746;2022-07-29T08:53:11;101875.06;;;20.69;56.59
4767;BME280;2397;53.576;9.746;2022-07-29T08:55:42;101863.19;;;21.09;57.06
4767;BME280;2397;53.576;9.746;2022-07-29T08:58:08;101864.03;;;21.14;57.76
4767;BME280;2397;53.576;9.746;2022-07-29T09:00:36;101859.03;;;20.91;57.11
4767;BME280;2397;53.576;9.746;2022-07-29T09:03:03;101864.19;;;21.00;55.87
4767;BME280;2397;53.576;9.746;2022-07-29T09:05:29;101860.22;;;20.62;55.42
4767;BME280;2397;53.576;9.746;2022-07-29T09:07:55;101862.00;;;20.57;55.81
4767;BME280;2397;53.576;9.746;2022-07-29T09:10:21;101856.72;;;20.60;57.34
4767;BME280;2397;53.576;9.746;2022-07-29T09:12:46;101862.03;;;20.56;58.40
4767;BME280;2397;53.576;9.746;2022-07-29T09:15:11;101854.31;;;20.35;57.00
4767;BME280;2397;53.576;9.746;2022-07-29T09:17:45;101858.72;;;20.35;59.07
4767;BME280;2397;53.576;9.746;2022-07-29T09:20:13;101850.81;;;20.36;56.45
4767;BME280;2397;53.576;9.746;2022-07-29T09:22:38;101853.50;;;20.30;57.52
4767;BME280;2397;53.576;9.746;2022-07-29T09:25:04;101851.78;;;20.26;56.12
4767;BME280;2397;53.576;9.746;2022-07-29T09:27:29;101858.91;;;20.16;58.33
4767;BME280;2397;53.576;9.746;2022-07-29T09:30:15;101860.59;;;20.21;57.96
4767;BME280;2397;53.576;9.746;2022-07-29T09:32:57;101859.91;;;19.98;59.25
4767;BME280;2397;53.576;9.746;2022-07-29T09:35:25;101860.59;;;20.21;55.87
4767;BME280;2397;53.576;9.746;2022-07-29T09:37:51;101856.38;;;20.03;55.10
4767;BME280;2397;53.576;9.746;2022-07-29T09:40:24;101859.19;;;19.81;60.84
4767;BME280;2397;53.576;9.746;2022-07-29T09:42:51;101866.09;;;19.91;57.52
4767;BME280;2397;53.576;9.746;2022-07-29T09:45:30;101868.69;;;19.97;59.42
4767;BME280;2397;53.576;9.746;2022-07-29T09:47:56;101866.09;;;19.88;59.13
4767;BME280;2397;53.576;9.746;2022-07-29T09:50:41;101865.16;;;20.02;60.01
4767;BME280;2397;53.576;9.746;2022-07-29T09:53:07;101861.59;;;20.06;55.19
4767;BME280;2397;53.576;9.746;2022-07-29T09:55:46;101865.19;;;19.95;58.11
4767;BME280;2397;53.576;9.746;2022-07-29T09:58:20;101867.88;;;19.86;56.89
4767;BME280;2397;53.576;9.746;2022-07-29T10:00:47;101868.75;;;19.85;58.37
4767;BME280;2397;53.576;9.746;2022-07-29T10:03:13;101865.16;;;19.98;57.19
4767;BME280;2397;53.576;9.746;2022-07-29T10:05:39;101866.13;;;19.83;59.36
4767;BME280;2397;53.576;9.746;2022-07-29T10:08:05;101862.53;;;19.98;56.17
4767;BME280;2397;53.576;9.746;2022-07-29T10:10:34;101860.81;;;19.97;61.44
4767;BME280;2397;53.576;9.746;2022-07-29T10:13:03;101861.53;;;20.12;57.00
4767;BME280;2397;53.576;9.746;2022-07-29T10:15:30;101866.03;;;20.02;63.94
4767;BME280;2397;53.576;9.746;2022-07-29T10:17:58;101853.59;;;20.23;57.69
4767;BME280;2397;53.576;9.746;2022-07-29T10:20:24;101858.88;;;20.18;60.64
4767;BME280;2397;53.576;9.746;2022-07-29T10:22:50;101853.59;;;20.21;59.14
4767;BME280;2397;53.576;9.746;2022-07-29T10:25:17;101850.78;;;20.40;56.42
4767;BME280;2397;53.576;9.746;2022-07-29T10:27:44;101842.66;;;20.66;56.60
4767;BME280;2397;53.576;9.746;2022-07-29T10:30:10;101851.44;;;20.62;59.43
4767;BME280;2397;53.576;9.746;2022-07-29T10:33:07;101850.31;;;20.89;54.54
4767;BME280;2397;53.576;9.746;2022-07-29T10:38:27;101840.44;;;21.03;52.15
4767;BME280;2397;53.576;9.746;2022-07-29T10:43:54;101832.06;;;21.40;53.52
4767;BME280;2397;53.576;9.746;2022-07-29T10:46:20;101836.59;;;21.31;56.81
4767;BME280;2397;53.576;9.746;2022-07-29T10:52:02;101836.94;;;21.68;53.56
4767;BME280;2397;53.576;9.746;2022-07-29T10:59:38;101827.84;;;22.41;50.73
4767;BME280;2397;53.576;9.746;2022-07-29T11:07:24;101829.53;;;22.45;49.67
4767;BME280;2397;53.576;9.746;2022-07-29T11:15:06;101820.72;;;22.90;48.88
4767;BME280;2397;53.576;9.746;2022-07-29T11:20:34;101811.84;;;23.35;48.20
4767;BME280;2397;53.576;9.746;2022-07-29T11:23:00;101819.41;;;23.52;46.08
4767;BME280;2397;53.576;9.746;2022-07-29T11:25:26;101809.25;;;24.40;43.67
4767;BME280;2397;53.576;9.746;2022-07-29T11:28:09;101815.69;;;23.96;45.22
4767;BME280;2397;53.576;9.746;2022-07-29T11:30:49;101810.75;;;23.81;45.87
4767;BME280;2397;53.576;9.746;2022-07-29T11:33:32;101810.69;;;23.85;43.38
4767;BME280;2397;53.576;9.746;2022-07-29T11:36:09;101811.09;;;23.67;44.01
4767;BME280;2397;53.576;9.746;2022-07-29T11:38:35;101801.59;;;23.96;41.42
4767;BME280;2397;53.576;9.746;2022-07-29T11:41:20;101799.81;;;23.60;43.42
4767;BME280;2397;53.576;9.746;2022-07-29T11:43:52;101798.09;;;23.58;43.91
4767;BME280;2397;53.576;9.746;2022-07-29T11:46:47;101795.09;;;23.73;43.67
4767;BME280;2397;53.576;9.746;2022-07-29T11:49:24;101793.75;;;24.59;43.50
4767;BME280;2397;53.576;9.746;2022-07-29T11:51:54;101784.97;;;24.88;42.18
4767;BME280;2397;53.576;9.746;2022-07-29T11:54:31;101783.81;;;24.97;41.93
4767;BME280;2397;53.576;9.746;2022-07-29T11:56:57;101785.09;;;25.41;39.91
4767;BME280;2397;53.576;9.746;2022-07-29T11:59:24;101777.06;;;25.45;40.17
4767;BME280;2397;53.576;9.746;2022-07-29T12:01:57;101764.97;;;24.78;38.52
4767;BME280;2397;53.576;9.746;2022-07-29T12:04:23;101776.94;;;25.19;41.94
4767;BME280;2397;53.576;9.746;2022-07-29T12:06:55;101776.13;;;24.89;40.27
4767;BME280;2397;53.576;9.746;2022-07-29T12:09:22;101772.75;;;25.69;41.24
4767;BME280;2397;53.576;9.746;2022-07-29T12:11:49;101769.97;;;25.99;37.29
4767;BME280;2397;53.576;9.746;2022-07-29T12:14:28;101753.16;;;26.49;38.91
4767;BME280;2397;53.576;9.746;2022-07-29T12:16:54;101773.03;;;26.13;38.16
4767;BME280;2397;53.576;9.746;2022-07-29T12:19:20;101764.41;;;26.55;38.33
4767;BME280;2397;53.576;9.746;2022-07-29T12:21:52;101767.72;;;25.33;37.10
4767;BME280;2397;53.576;9.746;2022-07-29T12:24:18;101769.66;;;25.81;38.73
4767;BME280;2397;53.576;9.746;2022-07-29T12:26:55;101777.09;;;25.97;37.57
4767;BME280;2397;53.576;9.746;2022-07-29T12:29:21;101764.69;;;26.24;39.12
4767;BME280;2397;53.576;9.746;2022-07-29T12:31:51;101764.31;;;25.56;37.46
4767;BME280;2397;53.576;9.746;2022-07-29T12:34:20;101771.69;;;25.73;37.75
4767;BME280;2397;53.576;9.746;2022-07-29T12:36:48;101766.09;;;25.82;35.97
4767;BME280;2397;53.576;9.746;2022-07-29T12:39:15;101761.97;;;26.25;35.09
4767;BME280;2397;53.576;9.746;2022-07-29T12:41:41;101764.28;;;26.09;38.67
4767;BME280;2397;53.576;9.746;2022-07-29T12:44:07;101762.28;;;26.65;38.21
4767;BME280;2397;53.576;9.746;2022-07-29T12:46:32;101758.25;;;26.78;34.36
4767;BME280;2397;53.576;9.746;2022-07-29T12:48:57;101765.19;;;27.27;32.34
4767;BME280;2397;53.576;9.746;2022-07-29T12:51:35;101752.63;;;27.75;32.84
4767;BME280;2397;53.576;9.746;2022-07-29T12:54:09;101752.69;;;28.14;32.16
4767;BME280;2397;53.576;9.746;2022-07-29T12:56:39;101747.72;;;28.07;33.27
4767;BME280;2397;53.576;9.746;2022-07-29T12:59:21;101754.91;;;28.04;33.30
4767;BME280;2397;53.576;9.746;2022-07-29T13:01:49;101745.13;;;28.45;30.67
4767;BME280;2397;53.576;9.746;2022-07-29T13:04:31;101745.25;;;28.62;29.77
4767;BME280;2397;53.576;9.746;2022-07-29T13:07:07;101741.13;;;28.93;30.88
4767;BME280;2397;53.576;9.746;2022-07-29T13:12:07;101739.19;;;28.78;28.77
4767;BME280;2397;53.576;9.746;2022-07-29T13:14:41;101745.22;;;29.00;32.46
4767;BME280;2397;53.576;9.746;2022-07-29T13:17:09;101738.22;;;29.88;28.59
4767;BME280;2397;53.576;9.746;2022-07-29T13:19:51;101728.25;;;29.57;29.14
4767;BME280;2397;53.576;9.746;2022-07-29T13:22:22;101731.53;;;29.27;29.25
4767;BME280;2397;53.576;9.746;2022-07-29T13:51:30;101702.75;;;27.59;32.75
4767;BME280;2397;53.576;9.746;2022-07-29T13:53:55;101708.19;;;27.77;32.13
4767;BME280;2397;53.576;9.746;2022-07-29T13:56:20;101705.56;;;26.90;34.58
4767;BME280;2397;53.576;9.746;2022-07-29T13:58:46;101707.31;;;26.91;35.47
4767;BME280;2397;53.576;9.746;2022-07-29T14:01:11;101708.53;;;27.04;33.49
4767;BME280;2397;53.576;9.746;2022-07-29T14:03:36;101713.84;;;26.82;34.88
4767;BME280;2397;53.576;9.746;2022-07-29T14:06:05;101709.44;;;26.57;35.50
4767;BME280;2397;53.576;9.746;2022-07-29T14:08:30;101709.06;;;26.44;37.75
4767;BME280;2397;53.576;9.746;2022-07-29T14:10:56;101707.38;;;26.65;36.33
4767;BME280;2397;53.576;9.746;2022-07-29T14:13:21;101710.63;;;26.74;37.80
4767;BME280;2397;53.576;9.746;2022-07-29T14:15:46;101708.06;;;26.47;36.90
4767;BME280;2397;53.576;9.746;2022-07-29T14:18:11;101706.00;;;27.01;37.40
4767;BME280;2397;53.576;9.746;2022-07-29T14:20:37;101708.47;;;28.12;34.83
4767;BME280;2397;53.576;9.746;2022-07-29T14:23:02;101708.44;;;28.32;36.85
4767;BME280;2397;53.576;9.746;2022-07-29T14:25:27;101715.84;;;28.45;35.13
4767;BME280;2397;53.576;9.746;2022-07-29T14:27:52;101709.72;;;28.81;35.18